• Join FlightAware (Why Join?)
  • Login
  • US Flag 
10:45PM EST


 

Airport Tracker/Info


-or-


 

Live Flight TrackerFlight Track Log ✈ DLH808 ✈ 14-Jun-2013 ✈ EDDF / FRA - ESSA / ARN

Flight Track Log - Related Links

Times and Time Zones

All times are in EDT time to prevent confusion due to time zone crossing. See the DLH808 flight status page for this flight to view local times or setup timezone preferences in your user account.

Time Position Orientation Groundspeed Altitude Reporting Facility
EDT Latitude Longitude Course Direction KTS MPH feet Rate Location/Type
04:04PM 51.5412 9.7103 26° Northeast  Level Estimated
04:05PM 51.6572 9.8033 26° Northeast  Level Estimated
04:06PM 51.7732 9.8968 27° Northeast  Level Estimated
04:07PM 51.8891 9.9907 27° Northeast  Level Estimated
04:08PM 52.0049 10.0851 27° Northeast  Level Estimated
04:09PM 52.1206 10.1801 27° Northeast  Level Estimated
04:10PM 52.2362 10.2755 27° Northeast  Level Estimated
04:11PM 52.3518 10.3714 27° Northeast  Level Estimated
04:12PM 52.4673 10.4678 27° Northeast  Level Estimated
04:13PM 52.5827 10.5647 27° Northeast  Level Estimated
04:14PM 52.6981 10.6621 27° Northeast  Level Estimated
04:15PM 52.8133 10.7601 27° Northeast  Level Estimated
04:16PM 52.9285 10.8586 27° Northeast  Level Estimated
04:17PM 53.0436 10.9576 27° Northeast  Level Estimated
04:18PM 53.1586 11.0571 27° Northeast  Level Estimated
04:19PM 53.2735 11.1572 27° Northeast  Level Estimated
04:20PM 53.3884 11.2577 28° Northeast  Level Estimated
04:21PM 53.5031 11.3589 28° Northeast  Level Estimated
04:22PM 53.6178 11.4606 28° Northeast  Level Estimated
04:23PM 53.7324 11.5628 28° Northeast  Level Estimated
04:24PM 53.8469 11.6656 28° Northeast  Level Estimated
04:25PM 53.9613 11.7690 28° Northeast  Level Estimated
04:26PM 54.0756 11.8729 28° Northeast  Level Estimated
04:27PM 54.1899 11.9775 28° Northeast  Level Estimated
04:28PM 54.3040 12.0825 28° Northeast  Level Estimated
04:29PM 54.4180 12.1882 28° Northeast  Level Estimated
04:30PM 54.5320 12.2945 28° Northeast  Level Estimated
04:31PM 54.6459 12.4013 28° Northeast  Level Estimated
04:32PM 54.7596 12.5088 29° Northeast  Level Estimated
04:33PM 54.8733 12.6168 29° Northeast  Level Estimated
04:34PM 54.9869 12.7255 29° Northeast  Level Estimated
04:35PM 55.1004 12.8348 29° Northeast  Level Estimated
04:36PM 55.2137 12.9447 29° Northeast  Level Estimated
04:37PM 55.3270 13.0553 29° Northeast  Level Estimated
04:38PM 55.4402 13.1664 29° Northeast  Level Estimated
04:39PM 55.5533 13.2782 29° Northeast  Level Estimated
04:40PM 55.6663 13.3907 29° Northeast  Level Estimated
04:41PM 55.7791 13.5038 29° Northeast  Level Estimated
04:42PM 55.8919 13.6176 29° Northeast  Level Estimated
04:43PM 56.0046 13.7320 30° Northeast  Level Estimated
04:44PM 56.1171 13.8471 30° Northeast  Level Estimated
04:45PM 56.2296 13.9629 30° Northeast  Level Estimated
04:46PM 56.3419 14.0793 30° Northeast  Level Estimated
04:47PM 56.4542 14.1965 30° Northeast  Level Estimated
04:48PM 56.5663 14.3143 30° Northeast  Level Estimated
04:49PM 56.6783 14.4328 30° Northeast  Level Estimated
04:50PM 56.7902 14.5521 30° Northeast  Level Estimated
04:51PM 56.9020 14.6721 30° Northeast  Level Estimated
04:52PM 57.0136 14.7927 30° Northeast  Level Estimated
04:53PM 57.1252 14.9141 31° Northeast  Level Estimated
04:54PM 57.2366 15.0363 31° Northeast  Level Estimated
04:55PM 57.3479 15.1591 31° Northeast  Level Estimated
04:56PM 57.4591 15.2828 31° Northeast  Level Estimated
04:57PM 57.5702 15.4071 31° Northeast  Level Estimated
04:58PM 57.6811 15.5323 31° Northeast  Level Estimated
04:59PM 57.7919 15.6582 31° Northeast  Level Estimated
05:00PM 57.9026 15.7849 31° Northeast  Level Estimated
05:01PM 58.0132 15.9123 31° Northeast  Level Estimated
05:02PM 58.1236 16.0406 32° Northeast  Level Estimated
05:03PM 58.2340 16.1696 32° Northeast  Level Estimated
05:04PM 58.3441 16.2995 32° Northeast  Level Estimated
05:05PM 58.4542 16.4301 32° Northeast  Level Estimated
05:06PM 58.5641 16.5616 32° Northeast  Level Estimated
05:07PM 58.6739 16.6939 32° Northeast  Level Estimated
05:08PM 58.7835 16.8271 32° Northeast  Level Estimated
05:09PM 58.8930 16.9611 32° Northeast  Level Estimated
05:10PM 59.0024 17.0959 32° Northeast  Level Estimated
05:11PM 59.1116 17.2316 33° Northeast  Level Estimated
05:12PM 59.2207 17.3682 33° Northeast  Level Estimated
05:13PM 59.3296 17.5056 33° Northeast  Level Estimated
05:14PM 59.4384 17.6440 33° Northeast  Level Estimated
05:15PM 59.5471 17.7832 33° Northeast  Level Estimated
05:16PM 59.6519 17.9186 33° Northeast  Level Estimated
05:17PM 59.6519 17.9186 North  Level Estimated
05:18PM 59.6519 17.9186 North  Level Estimated
05:19PM 59.6519 17.9186 North  Level Estimated
05:20PM 59.6519 17.9186 North  Level Estimated
05:21PM 59.6519 17.9186 North  Level Estimated
05:22PM 59.6519 17.9186 North  Level Estimated
05:23PM 59.6519 17.9186 North  Level Estimated
05:24PM 59.6519 17.9186 North  Level Estimated
05:25PM 59.6519 17.9186 North  Level Estimated
05:26PM 59.6519 17.9186 North  Level Estimated
05:27PM 59.6519 17.9186 North  Level Estimated
05:28PM 59.6519 17.9186 North  Level Estimated
05:29PM 59.6519 17.9186 North  Level Estimated
05:30PM 59.6519 17.9186 North  Level Estimated
05:31PM 59.6519 17.9186 North  Level Estimated
05:32PM 59.6519 17.9186 North  Level Estimated